Ana Sayfa
METAR-TAF:

METAR-TAF

Havaalanları :

Oujda, Fas

Enlem: 34-47N, Boylam: 001-56W, yükseklik: 468 m

Güncel hava durumu gözlemi

Rapor saat 14:30 UTC de 18 dakika önce yapıldı.
Rüzgar kuzey/kuzeybatıdan 15 kt
Sıcaklık 28°C
Nem 48%
Basınç 1020 hPa
Görüş mesafesi 10 km veya daha fazla
1500 m altında bulut yok ve kümülonimbus yok

METAR: GMFO 281430Z 33015KT CAVOK 28/16 Q1020 NOSIG

Saat: 15:48 (14:48 UTC)

Tahmin

Rapor saat 11:00 UTC de 3 saat ve 48 dakika önce yapıldı.
Ayın 28'si saat 12 UTC'den ayın 29'si saat 18 UTC'ye kadar geçerli Tahmin
Rüzgar kuzey/kuzeybatıdan 14 kt
Görüş mesafesi 10 km veya daha fazla
1500 m altında bulut yok ve kümülonimbus yok
Dönüşüyor
ayın 28'si saat 22 UTC'den ayın 29'si saat 02 UTC'ye kadar
Rüzgar değişken yönden 2 kt

TAF: GMFO 281100Z 2812/2918 33014KT CAVOK BECMG 2822/2902 VRB02KT

4.000'den fazla havaalanı için hava durumu gözlemleri ve tahminleri (METAR ve TAF raporları).

Kullanılabilir istasyonlar harita üzerinde sarı ve kırmızı noktalarla gösterilir.

İstasyonun adını görmek için fareyi noktanın üzerinde gezdirin.

Sonrasında hava gözlem ve tahminlerini görmek için tıklayın.

Haritayı değiştirmek için: yaklaştırmak için siyah artı işaretli yeşil düğmeye ve uzaklaştırmak için de eksi işaretli düğmeye hızla tıklayın; bitişik haritalar için yeşil okları kullanın.


METAR-TAF: